sensor_id;sensor_type;location;lat;lon;timestamp;pressure;altitude;pressure_sealevel;temperature;humidity
45113;BME280;30873;53.908;27.576;2022-12-16T00:00:05;1016.5;;;-2.5;69.4
45113;BME280;30873;53.908;27.576;2022-12-16T00:04:53;1016.5;;;-2.5;69.8
45113;BME280;30873;53.908;27.576;2022-12-16T00:09:51;1016.4;;;-2.6;69.7
45113;BME280;30873;53.908;27.576;2022-12-16T00:14:27;1016.4;;;-2.6;69.7
45113;BME280;30873;53.908;27.576;2022-12-16T00:20:03;1016.5;;;-2.5;69.5
45113;BME280;30873;53.908;27.576;2022-12-16T00:24:39;1016.5;;;-2.6;69.4
45113;BME280;30873;53.908;27.576;2022-12-16T00:29:19;1016.6;;;-2.5;69.5
45113;BME280;30873;53.908;27.576;2022-12-16T00:34:39;1016.5;;;-2.3;69.3
45113;BME280;30873;53.908;27.576;2022-12-16T00:39:37;1016.4;;;-2.3;69.2
45113;BME280;30873;53.908;27.576;2022-12-16T00:44:51;1016.5;;;-2.2;69.2
45113;BME280;30873;53.908;27.576;2022-12-16T00:49:37;1016.5;;;-2.2;68.9
45113;BME280;30873;53.908;27.576;2022-12-16T00:54:51;1016.5;;;-2;69
45113;BME280;30873;53.908;27.576;2022-12-16T00:59:53;1016.6;;;-2.1;68.5
45113;BME280;30873;53.908;27.576;2022-12-16T01:04:27;1016.6;;;-2.2;68.7
45113;BME280;30873;53.908;27.576;2022-12-16T01:09:51;1016.7;;;-2.1;68.8
45113;BME280;30873;53.908;27.576;2022-12-16T01:14:51;1016.8;;;-2.3;68.8
45113;BME280;30873;53.908;27.576;2022-12-16T01:19:19;1016.9;;;-2.5;69
45113;BME280;30873;53.908;27.576;2022-12-16T01:24:43;1017;;;-2.4;69.2
45113;BME280;30873;53.908;27.576;2022-12-16T01:29:43;1017.1;;;-2.4;69
45113;BME280;30873;53.908;27.576;2022-12-16T01:35:07;1017.1;;;-2.4;69.1
45113;BME280;30873;53.908;27.576;2022-12-16T01:39:31;1017.2;;;-2.5;69.3
45113;BME280;30873;53.908;27.576;2022-12-16T01:44:57;1017.3;;;-2.4;69.4
45113;BME280;30873;53.908;27.576;2022-12-16T01:50:00;1017.3;;;-2.3;69.4
45113;BME280;30873;53.908;27.576;2022-12-16T01:54:34;1017.4;;;-2.2;69.1
45113;BME280;30873;53.908;27.576;2022-12-16T02:00:09;1017.4;;;-2.2;68.8
45113;BME280;30873;53.908;27.576;2022-12-16T02:05:11;1017.5;;;-2.1;68
45113;BME280;30873;53.908;27.576;2022-12-16T02:09:19;1017.5;;;-2.1;68
45113;BME280;30873;53.908;27.576;2022-12-16T02:14:54;1017.5;;;-2.2;68
45113;BME280;30873;53.908;27.576;2022-12-16T02:19:52;1017.6;;;-2.2;67.7
45113;BME280;30873;53.908;27.576;2022-12-16T02:25:13;1017.6;;;-2.1;67.6
45113;BME280;30873;53.908;27.576;2022-12-16T02:29:32;1017.6;;;-2.1;67.2
45113;BME280;30873;53.908;27.576;2022-12-16T02:34:56;1017.7;;;-2.1;67.3
45113;BME280;30873;53.908;27.576;2022-12-16T02:39:57;1017.7;;;-2.3;66.7
45113;BME280;30873;53.908;27.576;2022-12-16T02:44:32;1017.8;;;-2.5;66
45113;BME280;30873;53.908;27.576;2022-12-16T02:50:10;1017.8;;;-2.4;66.5
45113;BME280;30873;53.908;27.576;2022-12-16T02:54:56;1017.7;;;-2.3;66.1
45113;BME280;30873;53.908;27.576;2022-12-16T02:59:32;1017.7;;;-2.3;66.5
45113;BME280;30873;53.908;27.576;2022-12-16T03:04:42;1017.8;;;-2.3;66.7
45113;BME280;30873;53.908;27.576;2022-12-16T03:09:30;1017.8;;;-2.4;66.4
45113;BME280;30873;53.908;27.576;2022-12-16T03:15:07;1017.8;;;-2.5;66.2
45113;BME280;30873;53.908;27.576;2022-12-16T03:19:19;1017.7;;;-2.4;66.6
45113;BME280;30873;53.908;27.576;2022-12-16T03:24:53;1017.7;;;-2.3;65.8
45113;BME280;30873;53.908;27.576;2022-12-16T03:29:56;1017.8;;;-2.3;65.4
45113;BME280;30873;53.908;27.576;2022-12-16T03:34:20;1017.8;;;-2.5;64.7
45113;BME280;30873;53.908;27.576;2022-12-16T03:40:09;1017.9;;;-2.5;65.5
45113;BME280;30873;53.908;27.576;2022-12-16T03:44:53;1017.9;;;-2.3;65.3
45113;BME280;30873;53.908;27.576;2022-12-16T03:49:31;1018;;;-2.3;65.3
45113;BME280;30873;53.908;27.576;2022-12-16T03:54:41;1018;;;-2.3;65.3
45113;BME280;30873;53.908;27.576;2022-12-16T03:59:41;1018;;;-2.3;65.3
45113;BME280;30873;53.908;27.576;2022-12-16T04:05:07;1018;;;-2.3;65.7
45113;BME280;30873;53.908;27.576;2022-12-16T04:09:33;1018;;;-2.2;65.9
45113;BME280;30873;53.908;27.576;2022-12-16T04:14:41;1018;;;-2.4;65.9
45113;BME280;30873;53.908;27.576;2022-12-16T04:19:45;1018;;;-2.5;66.1
45113;BME280;30873;53.908;27.576;2022-12-16T04:24:19;1018;;;-2.4;65.8
45113;BME280;30873;53.908;27.576;2022-12-16T04:30:07;1018;;;-2.3;64.9
45113;BME280;30873;53.908;27.576;2022-12-16T04:34:55;1018.1;;;-2.2;64.5
45113;BME280;30873;53.908;27.576;2022-12-16T04:40:05;1018.2;;;-2.3;64.2
45113;BME280;30873;53.908;27.576;2022-12-16T04:44:19;1018.3;;;-2.3;64.6
45113;BME280;30873;53.908;27.576;2022-12-16T04:50:07;1018.4;;;-2.3;64.7
45113;BME280;30873;53.908;27.576;2022-12-16T04:55:07;1018.4;;;-2.3;64.7
45113;BME280;30873;53.908;27.576;2022-12-16T04:59:19;1018.3;;;-2.4;65.6
45113;BME280;30873;53.908;27.576;2022-12-16T05:04:31;1018.3;;;-2.4;65.5
45113;BME280;30873;53.908;27.576;2022-12-16T05:09:43;1018.4;;;-2.3;65.4
45113;BME280;30873;53.908;27.576;2022-12-16T05:14:45;1018.3;;;-2.3;64.5
45113;BME280;30873;53.908;27.576;2022-12-16T05:19:53;1018.3;;;-2.4;64.5
45113;BME280;30873;53.908;27.576;2022-12-16T05:24:53;1018.3;;;-2.1;64.6
45113;BME280;30873;53.908;27.576;2022-12-16T05:29:57;1018.4;;;-2.2;64.6
45113;BME280;30873;53.908;27.576;2022-12-16T05:34:29;1018.5;;;-2.4;65.1
45113;BME280;30873;53.908;27.576;2022-12-16T05:40:09;1018.5;;;-2.5;65.5
45113;BME280;30873;53.908;27.576;2022-12-16T05:45:07;1018.6;;;-2.6;65.5
45113;BME280;30873;53.908;27.576;2022-12-16T05:49:57;1018.6;;;-2.7;65.7
45113;BME280;30873;53.908;27.576;2022-12-16T05:54:29;1018.6;;;-2.7;65.7
45113;BME280;30873;53.908;27.576;2022-12-16T05:59:47;1018.5;;;-2.5;65.6
45113;BME280;30873;53.908;27.576;2022-12-16T06:04:19;1018.4;;;-2.6;65.4
45113;BME280;30873;53.908;27.576;2022-12-16T06:09:45;1018.5;;;-2.5;65.7
45113;BME280;30873;53.908;27.576;2022-12-16T06:14:53;1018.6;;;-2.4;65.6
45113;BME280;30873;53.908;27.576;2022-12-16T06:19:19;1018.6;;;-2.5;65.2
45113;BME280;30873;53.908;27.576;2022-12-16T06:24:19;1018.8;;;-2.5;65.4
45113;BME280;30873;53.908;27.576;2022-12-16T06:29:57;1019;;;-2.5;65.4
45113;BME280;30873;53.908;27.576;2022-12-16T06:35:05;1019.1;;;-2.5;65.6
45113;BME280;30873;53.908;27.576;2022-12-16T06:39:41;1019.1;;;-2.5;65.8
45113;BME280;30873;53.908;27.576;2022-12-16T06:44:29;1019.1;;;-2.6;65.9
45113;BME280;30873;53.908;27.576;2022-12-16T06:49:47;1019.1;;;-2.7;65.8
45113;BME280;30873;53.908;27.576;2022-12-16T06:54:45;1019;;;-2.9;66.2
45113;BME280;30873;53.908;27.576;2022-12-16T06:59:53;1019;;;-2.8;66.3
45113;BME280;30873;53.908;27.576;2022-12-16T07:04:55;1019;;;-2.7;66.5
45113;BME280;30873;53.908;27.576;2022-12-16T07:09:57;1019;;;-2.6;66.2
45113;BME280;30873;53.908;27.576;2022-12-16T07:14:41;1019;;;-2.4;66
45113;BME280;30873;53.908;27.576;2022-12-16T07:20:09;1019.1;;;-2.2;65.3
45113;BME280;30873;53.908;27.576;2022-12-16T07:25:07;1019.2;;;-2.2;65.1
45113;BME280;30873;53.908;27.576;2022-12-16T07:29:19;1019.2;;;-2.1;64.9
45113;BME280;30873;53.908;27.576;2022-12-16T07:34:41;1019.4;;;-2.1;64.9
45113;BME280;30873;53.908;27.576;2022-12-16T07:39:43;1019.4;;;-2.1;64.8
45113;BME280;30873;53.908;27.576;2022-12-16T07:44:19;1019.5;;;-2.2;65.2
45113;BME280;30873;53.908;27.576;2022-12-16T07:50:07;1019.6;;;-2.2;65.5
45113;BME280;30873;53.908;27.576;2022-12-16T07:54:53;1019.5;;;-2.1;65.4
45113;BME280;30873;53.908;27.576;2022-12-16T07:59:47;1019.5;;;-1.9;65.6
45113;BME280;30873;53.908;27.576;2022-12-16T08:04:41;1019.4;;;-1.4;65.5
45113;BME280;30873;53.908;27.576;2022-12-16T08:10:05;1019.4;;;-1.2;64.3
45113;BME280;30873;53.908;27.576;2022-12-16T08:15:05;1019.4;;;-1.4;64.2
45113;BME280;30873;53.908;27.576;2022-12-16T08:19:31;1019.4;;;-1.5;64.8
45113;BME280;30873;53.908;27.576;2022-12-16T08:24:42;1019.5;;;-1.6;65.1
45113;BME280;30873;53.908;27.576;2022-12-16T08:29:59;1019.5;;;-1.6;65.6
45113;BME280;30873;53.908;27.576;2022-12-16T08:34:31;1019.6;;;-1.6;65.5
45113;BME280;30873;53.908;27.576;2022-12-16T08:40:05;1019.7;;;-1.5;65.8
45113;BME280;30873;53.908;27.576;2022-12-16T08:45:05;1019.6;;;-1.5;65.6
45113;BME280;30873;53.908;27.576;2022-12-16T08:49:19;1019.7;;;-1.5;65.7
45113;BME280;30873;53.908;27.576;2022-12-16T08:54:31;1019.9;;;-1.6;66
45113;BME280;30873;53.908;27.576;2022-12-16T08:59:55;1020;;;-1.6;65.8
45113;BME280;30873;53.908;27.576;2022-12-16T09:04:59;1020;;;-1.6;66
45113;BME280;30873;53.908;27.576;2022-12-16T09:09:31;1019.9;;;-1.6;66.1
45113;BME280;30873;53.908;27.576;2022-12-16T09:14:43;1019.9;;;-1.7;66.5
45113;BME280;30873;53.908;27.576;2022-12-16T09:19:57;1019.9;;;-1.8;66.5
45113;BME280;30873;53.908;27.576;2022-12-16T09:24:19;1019.8;;;-1.8;67
45113;BME280;30873;53.908;27.576;2022-12-16T09:30:09;1019.9;;;-1.7;67
45113;BME280;30873;53.908;27.576;2022-12-16T09:34:53;1019.9;;;-1.7;67.3
45113;BME280;30873;53.908;27.576;2022-12-16T09:39:29;1019.9;;;-1.6;67.4
45113;BME280;30873;53.908;27.576;2022-12-16T09:44:36;1019.9;;;-1.2;67.1
45113;BME280;30873;53.908;27.576;2022-12-16T09:49:57;1019.9;;;-1;66.1
45113;BME280;30873;53.908;27.576;2022-12-16T09:54:57;1019.9;;;-1.1;65.8
45113;BME280;30873;53.908;27.576;2022-12-16T09:59:32;1019.9;;;-1.2;66.1
45113;BME280;30873;53.908;27.576;2022-12-16T10:04:41;1019.9;;;-1;66.1
45113;BME280;30873;53.908;27.576;2022-12-16T10:09:58;1019.9;;;-0.9;65.8
45113;BME280;30873;53.908;27.576;2022-12-16T10:14:20;1019.7;;;-1.1;65.5
45113;BME280;30873;53.908;27.576;2022-12-16T10:20:10;1019.7;;;-0.9;66.1
45113;BME280;30873;53.908;27.576;2022-12-16T10:25:07;1019.6;;;-0.7;65.3
45113;BME280;30873;53.908;27.576;2022-12-16T10:29:31;1019.5;;;-0.8;65
45113;BME280;30873;53.908;27.576;2022-12-16T10:34:57;1019.5;;;-1.1;65.5
45113;BME280;30873;53.908;27.576;2022-12-16T10:39:57;1019.3;;;-1.2;66
45113;BME280;30873;53.908;27.576;2022-12-16T10:44:58;1019.1;;;-1.3;66
45113;BME280;30873;53.908;27.576;2022-12-16T10:49:19;1019;;;-1;67.3
45113;BME280;30873;53.908;27.576;2022-12-16T10:54:30;1018.9;;;-1;66.1
45113;BME280;30873;53.908;27.576;2022-12-16T10:59:45;1018.9;;;-0.9;65.6
45113;BME280;30873;53.908;27.576;2022-12-16T11:04:32;1018.9;;;-0.9;66.2
45113;BME280;30873;53.908;27.576;2022-12-16T11:10:20;1018.9;;;-0.8;65.6
45113;BME280;30873;53.908;27.576;2022-12-16T11:15:25;1019;;;-0.8;66
45113;BME280;30873;53.908;27.576;2022-12-16T11:19:45;1019.1;;;-0.7;65.6
45113;BME280;30873;53.908;27.576;2022-12-16T11:24:31;1019;;;-0.8;65.8
45113;BME280;30873;53.908;27.576;2022-12-16T11:30:00;1019;;;-0.8;65.9
45113;BME280;30873;53.908;27.576;2022-12-16T11:34:58;1018.9;;;-0.9;66
45113;BME280;30873;53.908;27.576;2022-12-16T11:39:20;1018.9;;;-0.9;66.3
45113;BME280;30873;53.908;27.576;2022-12-16T11:44:20;1018.9;;;-1.1;66.3
45113;BME280;30873;53.908;27.576;2022-12-16T11:49:59;1018.8;;;-1.3;66.7
45113;BME280;30873;53.908;27.576;2022-12-16T11:54:32;1018.8;;;-1.3;67.4
45113;BME280;30873;53.908;27.576;2022-12-16T12:00:09;1018.8;;;-0.9;67.2
45113;BME280;30873;53.908;27.576;2022-12-16T12:05:10;1018.7;;;-0.7;66.6
45113;BME280;30873;53.908;27.576;2022-12-16T12:09:29;1018.7;;;-0.6;66.1
45113;BME280;30873;53.908;27.576;2022-12-16T12:14:22;1018.6;;;-0.5;65.7
45113;BME280;30873;53.908;27.576;2022-12-16T12:20:00;1018.6;;;-0.5;65.5
45113;BME280;30873;53.908;27.576;2022-12-16T12:24:58;1018.5;;;-0.5;65.5
45113;BME280;30873;53.908;27.576;2022-12-16T12:29:45;1018.4;;;-0.4;65.4
45113;BME280;30873;53.908;27.576;2022-12-16T12:34:31;1018.3;;;-0.4;65.3
45113;BME280;30873;53.908;27.576;2022-12-16T12:39:58;1018.2;;;-0.5;65.3
45113;BME280;30873;53.908;27.576;2022-12-16T12:44:34;1018.2;;;-0.5;65.7
45113;BME280;30873;53.908;27.576;2022-12-16T12:49:53;1018.2;;;-0.6;65.6
45113;BME280;30873;53.908;27.576;2022-12-16T12:55:11;1018.2;;;-0.7;66
45113;BME280;30873;53.908;27.576;2022-12-16T12:59:58;1018.2;;;-0.6;66.1
45113;BME280;30873;53.908;27.576;2022-12-16T13:04:33;1018;;;-0.5;65.6
45113;BME280;30873;53.908;27.576;2022-12-16T13:10:14;1018.1;;;-0.6;65.7
45113;BME280;30873;53.908;27.576;2022-12-16T13:15:07;1018.1;;;-0.6;65.9
45113;BME280;30873;53.908;27.576;2022-12-16T13:19:43;1018.1;;;-0.6;65.9
45113;BME280;30873;53.908;27.576;2022-12-16T13:24:57;1018;;;-0.6;66.1
45113;BME280;30873;53.908;27.576;2022-12-16T13:30:00;1018;;;-0.6;65.7
45113;BME280;30873;53.908;27.576;2022-12-16T13:35:14;1018;;;-0.7;66.1
45113;BME280;30873;53.908;27.576;2022-12-16T13:40:12;1018;;;-0.7;66.1
45113;BME280;30873;53.908;27.576;2022-12-16T13:45:13;1017.9;;;-0.7;66.1
45113;BME280;30873;53.908;27.576;2022-12-16T13:49:44;1017.8;;;-0.7;66.1
45113;BME280;30873;53.908;27.576;2022-12-16T13:54:19;1017.8;;;-0.5;66
45113;BME280;30873;53.908;27.576;2022-12-16T13:59:59;1017.9;;;-0.7;65.7
45113;BME280;30873;53.908;27.576;2022-12-16T14:05:13;1018;;;-0.8;66.1
45113;BME280;30873;53.908;27.576;2022-12-16T14:09:24;1017.9;;;-0.8;66.4
45113;BME280;30873;53.908;27.576;2022-12-16T14:14:58;1017.9;;;-0.8;66.6
45113;BME280;30873;53.908;27.576;2022-12-16T14:19:58;1017.8;;;-0.8;66.6
45113;BME280;30873;53.908;27.576;2022-12-16T14:25:11;1017.8;;;-0.8;66.8
45113;BME280;30873;53.908;27.576;2022-12-16T14:30:13;1017.7;;;-0.7;66.6
45113;BME280;30873;53.908;27.576;2022-12-16T14:34:43;1017.7;;;-0.7;66.7
45113;BME280;30873;53.908;27.576;2022-12-16T14:39:47;1017.7;;;-0.8;66.8
45113;BME280;30873;53.908;27.576;2022-12-16T14:44:44;1017.8;;;-0.9;67.1
45113;BME280;30873;53.908;27.576;2022-12-16T14:50:14;1017.8;;;-0.9;67.3
45113;BME280;30873;53.908;27.576;2022-12-16T14:55:10;1017.7;;;-0.8;67.5
45113;BME280;30873;53.908;27.576;2022-12-16T14:59:33;1017.7;;;-0.8;67.2
45113;BME280;30873;53.908;27.576;2022-12-16T15:04:57;1017.7;;;-0.7;67.1
45113;BME280;30873;53.908;27.576;2022-12-16T15:09:57;1017.8;;;-0.7;67.1
45113;BME280;30873;53.908;27.576;2022-12-16T15:15:08;1017.8;;;-0.8;67.1
45113;BME280;30873;53.908;27.576;2022-12-16T15:20:10;1017.7;;;-0.7;67
45113;BME280;30873;53.908;27.576;2022-12-16T15:24:21;1017.7;;;-0.7;67.1
45113;BME280;30873;53.908;27.576;2022-12-16T15:29:45;1017.6;;;-0.6;67
45113;BME280;30873;53.908;27.576;2022-12-16T15:34:44;1017.6;;;-0.7;66.9
45113;BME280;30873;53.908;27.576;2022-12-16T15:40:17;1017.7;;;-0.7;67.4
45113;BME280;30873;53.908;27.576;2022-12-16T15:45:14;1017.7;;;-0.7;67.4
45113;BME280;30873;53.908;27.576;2022-12-16T15:49:44;1017.7;;;-0.8;67.5
45113;BME280;30873;53.908;27.576;2022-12-16T15:54:57;1017.8;;;-0.8;68.1
45113;BME280;30873;53.908;27.576;2022-12-16T15:59:56;1017.8;;;-0.8;68
45113;BME280;30873;53.908;27.576;2022-12-16T16:05:09;1017.8;;;-0.8;68.1
45113;BME280;30873;53.908;27.576;2022-12-16T16:10:09;1017.7;;;-0.8;68.2
45113;BME280;30873;53.908;27.576;2022-12-16T16:14:43;1017.7;;;-0.8;68.1
45113;BME280;30873;53.908;27.576;2022-12-16T16:19:33;1017.8;;;-0.7;68.2
45113;BME280;30873;53.908;27.576;2022-12-16T16:24:30;1017.8;;;-0.6;67.9
45113;BME280;30873;53.908;27.576;2022-12-16T16:30:08;1017.8;;;-0.5;68.1
45113;BME280;30873;53.908;27.576;2022-12-16T16:35:05;1017.8;;;-0.4;67.7
45113;BME280;30873;53.908;27.576;2022-12-16T16:39:29;1017.7;;;-0.3;67.4
45113;BME280;30873;53.908;27.576;2022-12-16T16:44:57;1017.7;;;-0.4;67.4
45113;BME280;30873;53.908;27.576;2022-12-16T16:49:57;1017.6;;;-0.3;67.2
45113;BME280;30873;53.908;27.576;2022-12-16T16:55:06;1017.6;;;-0.3;67.3
45113;BME280;30873;53.908;27.576;2022-12-16T17:00:08;1017.6;;;-0.3;67.3
45113;BME280;30873;53.908;27.576;2022-12-16T17:04:29;1017.5;;;-0.3;67.5
45113;BME280;30873;53.908;27.576;2022-12-16T17:09:41;1017.4;;;-0.4;67.6
45113;BME280;30873;53.908;27.576;2022-12-16T17:14:19;1017.3;;;-0.3;67.8
45113;BME280;30873;53.908;27.576;2022-12-16T17:20:12;1017.3;;;-0.3;67.8
45113;BME280;30873;53.908;27.576;2022-12-16T17:25:07;1017.2;;;-0.3;67.7
45113;BME280;30873;53.908;27.576;2022-12-16T17:29:31;1017.2;;;-0.3;67.5
45113;BME280;30873;53.908;27.576;2022-12-16T17:34:53;1017;;;-0.4;67.5
45113;BME280;30873;53.908;27.576;2022-12-16T17:39:53;1017;;;-0.4;67.4
45113;BME280;30873;53.908;27.576;2022-12-16T17:45:06;1016.9;;;-0.5;67.5
45113;BME280;30873;53.908;27.576;2022-12-16T17:49:19;1016.8;;;-0.7;67.7
45113;BME280;30873;53.908;27.576;2022-12-16T17:54:43;1016.7;;;-0.6;67.9
45113;BME280;30873;53.908;27.576;2022-12-16T17:59:47;1016.7;;;-0.6;67.9
45113;BME280;30873;53.908;27.576;2022-12-16T18:04:31;1016.7;;;-0.5;67.7
45113;BME280;30873;53.908;27.576;2022-12-16T18:10:05;1016.7;;;-0.5;67.6
45113;BME280;30873;53.908;27.576;2022-12-16T18:14:19;1016.6;;;-0.5;67.6
45113;BME280;30873;53.908;27.576;2022-12-16T18:19:31;1016.7;;;-0.4;67.4
45113;BME280;30873;53.908;27.576;2022-12-16T18:24:57;1016.7;;;-0.3;67.1
45113;BME280;30873;53.908;27.576;2022-12-16T18:29:59;1016.7;;;-0.4;66.9
45113;BME280;30873;53.908;27.576;2022-12-16T18:35:07;1016.8;;;-0.3;67.1
45113;BME280;30873;53.908;27.576;2022-12-16T18:39:20;1016.7;;;-0.2;66.8
45113;BME280;30873;53.908;27.576;2022-12-16T18:44:41;1016.6;;;-0.2;66.6
45113;BME280;30873;53.908;27.576;2022-12-16T18:49:55;1016.6;;;-0.2;66.5
45113;BME280;30873;53.908;27.576;2022-12-16T18:54:31;1016.6;;;-0.2;66.5
45113;BME280;30873;53.908;27.576;2022-12-16T19:00:06;1016.7;;;-0.3;66.6
45113;BME280;30873;53.908;27.576;2022-12-16T19:04:49;1016.7;;;-0.3;66.7
45113;BME280;30873;53.908;27.576;2022-12-16T19:09:31;1016.6;;;-0.2;66.8
45113;BME280;30873;53.908;27.576;2022-12-16T19:14:55;1016.5;;;-0.2;66.7
45113;BME280;30873;53.908;27.576;2022-12-16T19:19:57;1016.3;;;-0.3;66.9
45113;BME280;30873;53.908;27.576;2022-12-16T19:25:05;1016.2;;;-0.3;67.2
45113;BME280;30873;53.908;27.576;2022-12-16T19:29:19;1015.9;;;-0.4;67.2
45113;BME280;30873;53.908;27.576;2022-12-16T19:34:43;1015.7;;;-0.4;67.4
45113;BME280;30873;53.908;27.576;2022-12-16T19:39:31;1015.9;;;-0.4;67.5
45113;BME280;30873;53.908;27.576;2022-12-16T19:44:19;1016;;;-0.4;67.5
45113;BME280;30873;53.908;27.576;2022-12-16T19:50:07;1016;;;-0.5;67.5
45113;BME280;30873;53.908;27.576;2022-12-16T19:54:43;1015.9;;;-0.5;67.3
45113;BME280;30873;53.908;27.576;2022-12-16T19:59:33;1016;;;-0.6;67.3
45113;BME280;30873;53.908;27.576;2022-12-16T20:04:53;1016.1;;;-0.6;67.3
45113;BME280;30873;53.908;27.576;2022-12-16T20:10:04;1016.2;;;-0.5;66.9
45113;BME280;30873;53.908;27.576;2022-12-16T20:15:05;1016.2;;;-0.6;66.9
45113;BME280;30873;53.908;27.576;2022-12-16T20:19:19;1016.2;;;-0.6;67
45113;BME280;30873;53.908;27.576;2022-12-16T20:24:41;1016.2;;;-0.6;66.9
45113;BME280;30873;53.908;27.576;2022-12-16T20:29:45;1016.3;;;-0.6;67
45113;BME280;30873;53.908;27.576;2022-12-16T20:34:31;1016.2;;;-0.6;66.9
45113;BME280;30873;53.908;27.576;2022-12-16T20:40:08;1016;;;-0.5;66.9
45113;BME280;30873;53.908;27.576;2022-12-16T20:44:19;1015.7;;;-0.5;66.7
45113;BME280;30873;53.908;27.576;2022-12-16T20:49:19;1015.7;;;-0.5;66.7
45113;BME280;30873;53.908;27.576;2022-12-16T20:55:11;1016;;;-0.5;66.7
45113;BME280;30873;53.908;27.576;2022-12-16T20:59:57;1016;;;-0.5;66.7
45113;BME280;30873;53.908;27.576;2022-12-16T21:05:09;1016.2;;;-0.5;66.5
45113;BME280;30873;53.908;27.576;2022-12-16T21:09:19;1016.2;;;-0.5;66.5
45113;BME280;30873;53.908;27.576;2022-12-16T21:14:41;1016.3;;;-0.5;66.7
45113;BME280;30873;53.908;27.576;2022-12-16T21:19:45;1016.4;;;-0.4;66.5
45113;BME280;30873;53.908;27.576;2022-12-16T21:24:31;1016.4;;;-0.5;66.3
45113;BME280;30873;53.908;27.576;2022-12-16T21:30:08;1016.5;;;-0.3;66.6
45113;BME280;30873;53.908;27.576;2022-12-16T21:34:43;1016.6;;;-0.3;66.3
45113;BME280;30873;53.908;27.576;2022-12-16T21:39:29;1016.6;;;-0.3;66.2
45113;BME280;30873;53.908;27.576;2022-12-16T21:44:57;1016.4;;;-0.4;66.3
45113;BME280;30873;53.908;27.576;2022-12-16T21:49:57;1016.2;;;-0.4;66.5
45113;BME280;30873;53.908;27.576;2022-12-16T21:55:04;1016.2;;;-0.4;66.6
45113;BME280;30873;53.908;27.576;2022-12-16T21:59:19;1016.1;;;-0.4;66.5
45113;BME280;30873;53.908;27.576;2022-12-16T22:05:05;1016;;;-0.5;66.7
45113;BME280;30873;53.908;27.576;2022-12-16T22:10:05;1016;;;-0.5;66.6
45113;BME280;30873;53.908;27.576;2022-12-16T22:14:53;1016;;;-0.6;67.1
45113;BME280;30873;53.908;27.576;2022-12-16T22:19:37;1016.1;;;-0.7;67.3
45113;BME280;30873;53.908;27.576;2022-12-16T22:24:37;1016.2;;;-0.8;67.6
45113;BME280;30873;53.908;27.576;2022-12-16T22:30:06;1016.2;;;-0.7;67.8
45113;BME280;30873;53.908;27.576;2022-12-16T22:35:07;1016.2;;;-0.6;67.6
45113;BME280;30873;53.908;27.576;2022-12-16T22:40:01;1016.2;;;-0.6;67.2
45113;BME280;30873;53.908;27.576;2022-12-16T22:44:51;1016.2;;;-0.6;67.4
45113;BME280;30873;53.908;27.576;2022-12-16T22:49:41;1016.1;;;-0.6;67.3
45113;BME280;30873;53.908;27.576;2022-12-16T22:55:07;1016.1;;;-0.5;67.3
45113;BME280;30873;53.908;27.576;2022-12-16T23:00:04;1016;;;-0.4;67.1
45113;BME280;30873;53.908;27.576;2022-12-16T23:04:25;1015.9;;;-0.5;67.1
45113;BME280;30873;53.908;27.576;2022-12-16T23:09:39;1015.8;;;-0.5;67.1
45113;BME280;30873;53.908;27.576;2022-12-16T23:14:39;1015.7;;;-0.5;67.2
45113;BME280;30873;53.908;27.576;2022-12-16T23:20:06;1015.6;;;-0.6;67.2
45113;BME280;30873;53.908;27.576;2022-12-16T23:25:06;1015.6;;;-0.7;67.6
45113;BME280;30873;53.908;27.576;2022-12-16T23:29:49;1015.6;;;-0.7;67.8
45113;BME280;30873;53.908;27.576;2022-12-16T23:34:55;1015.6;;;-0.8;67.9
45113;BME280;30873;53.908;27.576;2022-12-16T23:39:19;1015.5;;;-0.9;68.2
45113;BME280;30873;53.908;27.576;2022-12-16T23:45:02;1015.6;;;-0.9;68.5
45113;BME280;30873;53.908;27.576;2022-12-16T23:50:06;1015.5;;;-0.7;68.6
45113;BME280;30873;53.908;27.576;2022-12-16T23:54:27;1015.5;;;-0.7;68.2
45113;BME280;30873;53.908;27.576;2022-12-16T23:59:29;1015.5;;;-0.6;68.2
